Levering, MI (49755)

7:56 AM EDT on September 04, 2015 (GMT -0400)
North Levering MI | | Change Station
CLOSE
Current Station
Personal Weather Station
Location: Levering, MI
Elevation: 741 ft
Nearby Weather Stations

Elev 741 ft 45.67 °N, 84.79 °W | Updated 41 seconds ago

Overcast
Overcast
63.0 °F
Feels Like 63.0 °F
N
2.7
Wind Variable Wind from SSE
Gusts 5.1 mph

Today
High -- | Low -- °F
--% Chance of Precip.
Yesterday
High -- | Low -- °F
Precip. -- in
7:03 AM 8:12 PM
Waning Gibbous, 60% visible
Pressure 30.04 in
Visibility 10.0 miles
Clouds Scattered Clouds 9000 ft
Overcast 12000 ft
Dew Point 60 °F
Humidity 91%
Rainfall 0.00 in
Snow Depth Not available.
UV 0 out of 12
Pollen 10.10 out of 12
Air Quality Not available.
Flu Activity Not available.
METAR KPLN 041054Z AUTO 36006KT 10SM SCT090 OVC120 18/16 A3004 RMK AO2 SLP170 T01780161
Pressure 30.04 in
Visibility 10.0 miles
Clouds Scattered Clouds 9000 ft
Overcast 12000 ft
Dew Point 60 °F
Humidity 91%
Rainfall 0.00 in
Snow Depth Not available.
UV 0 out of 12
Pollen 10.10 out of 12
Air Quality Not available.
Flu Activity Not available.
METAR KPLN 041054Z AUTO 36006KT 10SM SCT090 OVC120 18/16 A3004 RMK AO2 SLP170 T01780161
Nowcast | as of 7:00 am EDT on September 4, 2015

At 8 am...cloudy. Patchy drizzle. Temperature 65. Northeast winds 10 mph. At 10 am...mostly cloudy. Patchy drizzle. Temperature 69. East winds 11 mph. At 12 PM...mostly cloudy. Scattered showers. Temperature 72. East winds 10 mph. At 2 PM...mostly cloudy. Scattered showers and chance of thunderstorms. Temperature 73. East winds 8 mph.

×

10-Day Weather Forecast

×

Almanac

Astronomy

Sep. 04, 2015 Rise Set
Actual Time
Civil Twilight
Nautical Twilight
Astronomical Twilight
Moon
Length of Visible Light
Length of Day
Tomorrow will be .
, % of the Moon is Illuminated

Today's Extremes

State Highs State Lows

Community

WunderPhotos

Upload Photos

1,852,157 photos uploaded!

WunderBlogs® & News

Nearby

Air Quality

  Air Quality AQ Index Pollutant
Not available.

Snow Depth

Station Depth Elevation

Earthquake Activity

City Distance Mag. Time & Date
Minimum magnitude displayed is 2.5.

Coastal Water Temperatures

Place Temperature

Stations

Nearby Weather Stations

Station Location Temp. Windchill Dew Point Humidity Wind Precip. Elev Updated Type